Terminal Aerodrome Forecast
Issued by NWS

Home | Current Version | Previous Version | Text Only | Print | Product List | Glossary On
Versions: 1 2 3 4 5 6 7 8 9 10 11 12 13 14 15 16 17 18 19 20
000
FTUS43 KGRR 280100 AAB
TAFBTL
TAF AMD
KBTL 280102Z 2801/2824 27010G19KT P6SM BKN017 OVC024
     FM280200 27012KT P6SM OVC015
     FM280500 29006KT P6SM BKN025
     FM281400 29006KT P6SM FEW250=

USA.gov is the U.S. government's official web portal to all federal, state and local government web resources and services.